createdAt,value
2023-05-19T00:01:00.495Z,14.00
2023-05-19T00:03:29.153Z,13.40
2023-05-19T00:05:57.383Z,13.90
2023-05-19T00:08:25.668Z,13.70
2023-05-19T00:10:55.798Z,13.60
2023-05-19T00:13:24.209Z,13.70
2023-05-19T00:15:52.772Z,13.60
2023-05-19T00:18:21.072Z,13.60
2023-05-19T00:20:49.159Z,13.60
2023-05-19T00:23:17.248Z,13.60
2023-05-19T00:25:45.388Z,13.70
2023-05-19T00:28:14.862Z,13.80
2023-05-19T00:30:42.956Z,13.70
2023-05-19T00:33:11.336Z,13.40
2023-05-19T00:35:40.694Z,13.90
2023-05-19T00:38:08.775Z,13.70
2023-05-19T00:40:36.981Z,13.60
2023-05-19T00:43:05.975Z,13.80
2023-05-19T00:45:35.427Z,13.50
2023-05-19T00:48:03.542Z,13.80
2023-05-19T00:50:31.898Z,14.20
2023-05-19T00:53:00.125Z,14.30
2023-05-19T00:55:29.247Z,14.10
2023-05-19T00:57:57.687Z,13.90
2023-05-19T01:00:25.768Z,13.50
2023-05-19T01:02:56.147Z,13.50
2023-05-19T01:05:24.338Z,13.40
2023-05-19T01:07:53.688Z,13.50
2023-05-19T01:10:22.154Z,13.90
2023-05-19T01:12:50.287Z,13.70
2023-05-19T01:15:18.577Z,13.90
2023-05-19T01:17:55.679Z,13.90
2023-05-19T01:20:29.264Z,13.80
2023-05-19T01:23:19.428Z,14.00
2023-05-19T01:26:19.392Z,13.70
2023-05-19T01:29:00.885Z,14.20
2023-05-19T01:31:30.363Z,13.80
2023-05-19T01:33:58.468Z,14.20
2023-05-19T01:36:26.551Z,13.90
2023-05-19T01:38:58.984Z,13.80
2023-05-19T01:41:28.516Z,13.80
2023-05-19T01:43:56.635Z,13.80
2023-05-19T01:46:24.967Z,13.70
2023-05-19T01:48:54.565Z,14.10
2023-05-19T01:51:22.656Z,14.10
2023-05-19T01:53:50.765Z,14.00
2023-05-19T01:56:21.601Z,13.90
2023-05-19T01:58:52.158Z,14.10
2023-05-19T02:01:30.016Z,14.10
2023-05-19T02:04:07.202Z,14.10
2023-05-19T02:06:40.813Z,14.10
2023-05-19T02:09:12.939Z,14.00
2023-05-19T02:11:42.450Z,14.20
2023-05-19T02:14:21.174Z,14.30
2023-05-19T02:16:49.798Z,14.20
2023-05-19T02:19:27.501Z,14.20
2023-05-19T02:21:56.396Z,14.10
2023-05-19T02:24:24.466Z,14.00
2023-05-19T02:26:52.849Z,14.20
2023-05-19T02:29:20.936Z,14.20
2023-05-19T02:31:49.038Z,14.00
2023-05-19T02:34:17.169Z,13.90
2023-05-19T02:36:49.893Z,13.80
2023-05-19T02:39:17.964Z,14.00
2023-05-19T02:41:46.066Z,14.00
2023-05-19T02:44:14.170Z,14.00
2023-05-19T02:46:42.338Z,13.90
2023-05-19T02:49:11.266Z,13.80
2023-05-19T02:51:39.319Z,13.80
2023-05-19T02:54:08.781Z,13.50
2023-05-19T02:56:36.866Z,13.70
2023-05-19T02:59:04.925Z,13.60
2023-05-19T03:01:33.827Z,13.60
2023-05-19T03:04:02.301Z,13.60
2023-05-19T03:06:32.836Z,13.60
2023-05-19T03:09:00.903Z,13.70
2023-05-19T03:11:31.017Z,13.60
2023-05-19T03:13:59.467Z,13.80
2023-05-19T03:16:28.154Z,14.10
2023-05-19T03:18:56.786Z,14.10
2023-05-19T03:21:24.843Z,13.90
2023-05-19T03:23:52.964Z,13.80
2023-05-19T03:26:23.000Z,14.00
2023-05-19T03:28:52.474Z,13.90
2023-05-19T03:31:20.502Z,13.90
2023-05-19T03:33:48.590Z,14.00
2023-05-19T03:36:17.528Z,14.10
2023-05-19T03:38:45.694Z,13.70
2023-05-19T03:41:13.783Z,13.50
2023-05-19T03:43:42.038Z,13.90
2023-05-19T03:46:11.510Z,13.60
2023-05-19T03:48:39.593Z,13.50
2023-05-19T03:51:09.110Z,13.30
2023-05-19T03:53:38.050Z,13.40
2023-05-19T03:56:07.596Z,13.60
2023-05-19T03:58:37.052Z,13.60
2023-05-19T04:01:05.161Z,13.70
2023-05-19T04:03:34.700Z,13.70
2023-05-19T04:06:02.929Z,13.70
2023-05-19T04:08:31.092Z,13.60
2023-05-19T04:10:59.172Z,13.80
2023-05-19T04:13:27.243Z,13.70
2023-05-19T04:15:55.351Z,13.80
2023-05-19T04:18:23.522Z,14.00
2023-05-19T04:20:53.008Z,13.70
2023-05-19T04:23:21.084Z,13.80
2023-05-19T04:25:49.575Z,13.90
2023-05-19T04:28:17.990Z,13.70
2023-05-19T04:30:46.779Z,13.60
2023-05-19T04:33:15.080Z,13.80
2023-05-19T04:35:43.896Z,13.80
2023-05-19T04:38:13.763Z,13.90
2023-05-19T04:40:43.217Z,14.00
2023-05-19T04:43:11.414Z,14.00
2023-05-19T04:45:42.870Z,14.30
2023-05-19T04:48:12.284Z,14.40
2023-05-19T04:50:42.283Z,14.30
2023-05-19T04:53:11.495Z,14.30
2023-05-19T04:55:41.176Z,14.30
2023-05-19T04:58:09.372Z,14.40
2023-05-19T05:00:38.333Z,14.70
2023-05-19T05:03:07.235Z,14.50
2023-05-19T05:05:35.899Z,14.70
2023-05-19T05:08:04.405Z,14.70
2023-05-19T05:10:32.685Z,14.70
2023-05-19T05:13:03.040Z,14.80
2023-05-19T05:15:31.848Z,15.00
2023-05-19T05:18:00.587Z,14.70
2023-05-19T05:20:29.494Z,14.80
2023-05-19T05:22:58.247Z,14.80
2023-05-19T05:25:27.056Z,15.00
2023-05-19T05:27:55.147Z,15.10
2023-05-19T05:30:24.782Z,14.70
2023-05-19T05:32:52.959Z,15.20
2023-05-19T05:35:22.384Z,15.20
2023-05-19T05:37:50.520Z,15.00
2023-05-19T05:40:19.049Z,15.30
2023-05-19T05:42:47.357Z,15.30
2023-05-19T05:45:15.576Z,15.60
2023-05-19T05:47:45.738Z,15.50
2023-05-19T05:50:15.031Z,15.70
2023-05-19T05:52:43.625Z,15.60
2023-05-19T05:55:13.199Z,15.60
2023-05-19T05:57:41.977Z,15.40
2023-05-19T06:00:15.585Z,15.80
2023-05-19T06:02:47.405Z,15.80
2023-05-19T06:05:15.792Z,15.90
2023-05-19T06:07:44.128Z,16.00
2023-05-19T06:10:12.484Z,16.10
2023-05-19T06:12:42.622Z,15.70
2023-05-19T06:15:11.159Z,16.00
2023-05-19T06:17:39.491Z,16.00
2023-05-19T06:20:10.336Z,15.80
2023-05-19T06:22:38.421Z,16.00
2023-05-19T06:25:09.022Z,16.20
2023-05-19T06:27:37.177Z,16.40
2023-05-19T06:30:06.456Z,16.70
2023-05-19T06:32:34.830Z,16.90
2023-05-19T06:35:03.015Z,16.50
2023-05-19T06:37:32.516Z,16.40
2023-05-19T06:40:00.688Z,16.50
2023-05-19T06:42:28.909Z,16.70
2023-05-19T06:44:57.014Z,17.30
2023-05-19T06:47:25.219Z,17.50
2023-05-19T06:49:55.509Z,16.30
2023-05-19T06:52:24.991Z,17.30
2023-05-19T06:54:54.586Z,17.30
2023-05-19T06:57:22.750Z,16.90
2023-05-19T06:59:51.986Z,16.80
2023-05-19T07:02:21.898Z,17.40
2023-05-19T07:04:51.501Z,17.10
2023-05-19T07:07:20.705Z,17.40
2023-05-19T07:09:49.238Z,17.40
2023-05-19T07:12:32.579Z,17.80
2023-05-19T07:15:22.110Z,17.90
2023-05-19T07:18:03.441Z,18.70
2023-05-19T07:21:17.928Z,17.70
2023-05-19T07:23:51.233Z,17.90
2023-05-19T07:26:22.843Z,17.50
2023-05-19T07:28:52.432Z,18.10
2023-05-19T07:31:20.587Z,18.30
2023-05-19T07:33:48.847Z,18.70
2023-05-19T07:36:17.105Z,18.70
2023-05-19T07:38:46.722Z,18.40
2023-05-19T07:41:14.831Z,18.30
2023-05-19T07:43:43.380Z,18.30
2023-05-19T07:46:12.982Z,18.00
2023-05-19T07:48:41.191Z,18.10
2023-05-19T07:51:10.320Z,18.20
2023-05-19T07:53:38.558Z,19.00
2023-05-19T07:56:07.122Z,19.00
2023-05-19T07:58:35.204Z,19.40
2023-05-19T08:01:03.364Z,19.80
2023-05-19T08:03:33.478Z,19.40
2023-05-19T08:06:01.691Z,19.40
2023-05-19T08:08:29.868Z,19.40
2023-05-19T08:10:58.039Z,19.50
2023-05-19T08:13:26.104Z,19.30
2023-05-19T08:15:59.553Z,20.20
2023-05-19T08:18:27.733Z,20.10
2023-05-19T08:20:57.317Z,19.90
2023-05-19T08:23:25.540Z,20.50
2023-05-19T08:25:53.637Z,20.70
2023-05-19T08:28:21.714Z,20.10
2023-05-19T08:30:51.051Z,20.20
2023-05-19T08:33:20.815Z,20.80
2023-05-19T08:35:48.945Z,20.70
2023-05-19T08:38:20.939Z,20.30
2023-05-19T08:40:49.434Z,20.50
2023-05-19T08:43:17.716Z,19.40
2023-05-19T08:45:46.864Z,20.50
2023-05-19T08:48:15.486Z,20.60
2023-05-19T08:50:43.682Z,21.10
2023-05-19T08:53:31.400Z,21.20
2023-05-19T08:56:04.169Z,21.20
2023-05-19T08:58:32.369Z,21.50
2023-05-19T09:01:00.617Z,21.70
2023-05-19T09:03:29.121Z,21.50
2023-05-19T09:05:57.661Z,21.30
2023-05-19T09:08:25.857Z,21.00
2023-05-19T09:10:53.947Z,19.80
2023-05-19T09:13:23.453Z,21.30
2023-05-19T09:15:52.492Z,21.80
2023-05-19T09:18:20.903Z,22.50
2023-05-19T09:20:49.008Z,21.30
2023-05-19T09:23:17.688Z,20.30
2023-05-19T09:25:49.683Z,21.80
2023-05-19T09:28:26.341Z,21.80
2023-05-19T09:31:01.187Z,21.70
2023-05-19T09:33:29.588Z,21.40
2023-05-19T09:35:57.712Z,22.60
2023-05-19T09:38:26.455Z,21.90
2023-05-19T09:40:54.596Z,21.80
2023-05-19T09:43:22.850Z,22.90
2023-05-19T09:45:56.203Z,23.40
2023-05-19T09:48:24.322Z,23.30
2023-05-19T09:50:53.246Z,22.50
2023-05-19T09:53:21.967Z,23.00
2023-05-19T09:55:50.087Z,22.40
2023-05-19T09:58:18.750Z,22.20
2023-05-19T10:00:47.012Z,21.50
2023-05-19T10:03:17.800Z,21.90
2023-05-19T10:05:46.098Z,21.50
2023-05-19T10:08:14.392Z,22.20
2023-05-19T10:10:44.060Z,22.10
2023-05-19T10:13:13.260Z,21.80
2023-05-19T10:15:57.146Z,21.70
2023-05-19T10:18:29.556Z,22.00
2023-05-19T10:20:58.835Z,23.00
2023-05-19T10:23:27.025Z,23.20
2023-05-19T10:25:57.250Z,22.90
2023-05-19T10:28:28.095Z,23.30
2023-05-19T10:30:57.886Z,23.00
2023-05-19T10:33:47.912Z,23.50
2023-05-19T10:36:29.330Z,23.70
2023-05-19T10:39:00.087Z,24.40
2023-05-19T10:41:29.962Z,23.40
2023-05-19T10:44:05.930Z,23.30
2023-05-19T10:46:34.130Z,23.00
2023-05-19T10:49:03.629Z,23.00
2023-05-19T10:51:32.557Z,23.30
2023-05-19T10:54:03.157Z,23.30
2023-05-19T10:56:33.810Z,23.30
2023-05-19T10:59:02.309Z,24.30
2023-05-19T11:01:33.255Z,24.00
2023-05-19T11:04:08.031Z,24.20
2023-05-19T11:06:37.930Z,23.50
2023-05-19T11:09:13.414Z,24.10
2023-05-19T11:11:46.559Z,24.60
2023-05-19T11:14:15.657Z,25.10
2023-05-19T11:16:45.949Z,24.80
2023-05-19T11:19:21.497Z,24.10
2023-05-19T11:21:50.595Z,24.10
2023-05-19T11:24:37.698Z,23.80
2023-05-19T11:27:22.067Z,24.00
2023-05-19T11:29:50.268Z,24.00
2023-05-19T11:32:18.463Z,23.60
2023-05-19T11:34:48.398Z,23.50
2023-05-19T11:37:16.629Z,23.30
2023-05-19T11:39:46.264Z,23.80
2023-05-19T11:42:14.516Z,23.70
2023-05-19T11:44:42.893Z,23.50
2023-05-19T11:47:10.981Z,23.60
2023-05-19T11:49:39.349Z,23.50
2023-05-19T11:52:08.887Z,23.80
2023-05-19T11:54:37.425Z,23.50
2023-05-19T11:57:05.744Z,23.00
2023-05-19T11:59:35.789Z,23.10
2023-05-19T12:02:05.331Z,22.70
2023-05-19T12:04:33.496Z,22.80
2023-05-19T12:07:01.768Z,22.80
2023-05-19T12:09:31.542Z,22.80
2023-05-19T12:11:59.685Z,23.00
2023-05-19T12:14:27.964Z,23.40
2023-05-19T12:16:56.104Z,22.50
2023-05-19T12:19:25.893Z,22.80
2023-05-19T12:21:54.241Z,22.50
2023-05-19T12:24:22.412Z,22.60
2023-05-19T12:26:51.978Z,22.00
2023-05-19T12:29:20.370Z,22.40
2023-05-19T12:31:49.359Z,22.20
2023-05-19T12:34:17.822Z,22.30
2023-05-19T12:36:46.668Z,22.10
2023-05-19T12:39:15.517Z,22.20
2023-05-19T12:41:46.270Z,22.90
2023-05-19T12:44:18.602Z,23.10
2023-05-19T12:46:46.718Z,22.40
2023-05-19T12:49:14.906Z,22.90
2023-05-19T12:51:43.137Z,23.10
2023-05-19T12:54:11.315Z,22.80
2023-05-19T12:56:39.674Z,23.10
2023-05-19T12:59:07.934Z,22.40
2023-05-19T13:01:38.108Z,22.30
2023-05-19T13:04:06.887Z,22.30
2023-05-19T13:06:35.216Z,22.50
2023-05-19T13:09:03.371Z,22.50
2023-05-19T13:11:31.515Z,22.60
2023-05-19T13:13:59.782Z,22.70
2023-05-19T13:16:29.430Z,22.40
2023-05-19T13:18:59.533Z,22.20
2023-05-19T13:21:28.106Z,22.40
2023-05-19T13:23:56.246Z,22.00
2023-05-19T13:26:24.707Z,21.80
2023-05-19T13:28:52.879Z,22.60
2023-05-19T13:31:21.427Z,22.30
2023-05-19T13:33:49.871Z,22.10
2023-05-19T13:36:19.540Z,22.30
2023-05-19T13:38:47.639Z,21.90
2023-05-19T13:41:16.120Z,21.90
2023-05-19T13:43:44.286Z,22.30
2023-05-19T13:46:12.481Z,21.80
2023-05-19T13:48:40.718Z,22.00
2023-05-19T13:51:08.975Z,22.00
2023-05-19T13:53:39.223Z,21.80
2023-05-19T13:56:07.568Z,21.70
2023-05-19T13:58:35.636Z,22.20
2023-05-19T14:01:03.774Z,22.00
2023-05-19T14:03:32.008Z,22.10
2023-05-19T14:06:00.403Z,22.00
2023-05-19T14:08:28.601Z,22.10
2023-05-19T14:10:58.140Z,21.80
2023-05-19T14:13:33.028Z,21.50
2023-05-19T14:16:04.333Z,22.00
2023-05-19T14:18:32.570Z,22.10
2023-05-19T14:21:00.666Z,22.20
2023-05-19T14:23:30.321Z,22.00
2023-05-19T14:25:59.839Z,21.80
2023-05-19T14:28:28.069Z,21.70
2023-05-19T14:30:56.138Z,21.70
2023-05-19T14:33:24.268Z,21.50
2023-05-19T14:35:52.644Z,21.40
2023-05-19T14:38:20.730Z,21.40
2023-05-19T14:40:49.274Z,21.30
2023-05-19T14:43:18.789Z,21.40
2023-05-19T14:45:47.042Z,21.90
2023-05-19T14:48:15.255Z,21.70
2023-05-19T14:50:43.512Z,21.60
2023-05-19T14:53:11.848Z,21.50
2023-05-19T14:55:39.960Z,21.80
2023-05-19T14:58:19.674Z,21.80
2023-05-19T15:00:58.561Z,21.90
2023-05-19T15:03:26.721Z,22.20
2023-05-19T15:05:54.943Z,22.10
2023-05-19T15:08:23.494Z,22.50
2023-05-19T15:10:51.632Z,22.20
2023-05-19T15:13:21.601Z,22.40
2023-05-19T15:15:49.936Z,22.50
2023-05-19T15:18:19.641Z,22.30
2023-05-19T15:20:47.941Z,22.50
2023-05-19T15:23:16.142Z,22.10
2023-05-19T15:25:45.592Z,22.30
2023-05-19T15:28:13.727Z,22.30
2023-05-19T15:30:43.018Z,21.90
2023-05-19T15:33:11.872Z,21.80
2023-05-19T15:35:41.464Z,21.90
2023-05-19T15:38:09.578Z,21.90
2023-05-19T15:40:37.672Z,21.70
2023-05-19T15:43:05.808Z,21.70
2023-05-19T15:45:33.946Z,21.20
2023-05-19T15:48:02.106Z,22.00
2023-05-19T15:50:30.666Z,22.00
2023-05-19T15:53:00.233Z,21.80
2023-05-19T15:55:28.527Z,21.50
2023-05-19T15:57:56.906Z,21.60
2023-05-19T16:00:25.276Z,21.70
2023-05-19T16:02:53.497Z,22.00
2023-05-19T16:05:21.983Z,22.30
2023-05-19T16:07:50.142Z,22.20
2023-05-19T16:10:20.017Z,22.10
2023-05-19T16:12:48.195Z,22.50
2023-05-19T16:15:16.591Z,21.90
2023-05-19T16:17:44.796Z,22.10
2023-05-19T16:20:13.529Z,22.10
2023-05-19T16:22:41.784Z,22.10
2023-05-19T16:25:10.468Z,22.30
2023-05-19T16:27:39.922Z,22.00
2023-05-19T16:30:09.382Z,22.10
2023-05-19T16:32:37.645Z,21.70
2023-05-19T16:35:06.592Z,22.00
2023-05-19T16:37:34.912Z,22.10
2023-05-19T16:40:03.288Z,22.30
2023-05-19T16:42:32.032Z,22.10
2023-05-19T16:45:01.492Z,22.20
2023-05-19T16:47:29.667Z,22.30
2023-05-19T16:49:57.752Z,22.50
2023-05-19T16:52:25.874Z,22.00
2023-05-19T16:54:53.930Z,21.60
2023-05-19T16:57:22.128Z,21.90
2023-05-19T16:59:50.270Z,21.80
2023-05-19T17:02:19.856Z,22.20
2023-05-19T17:04:48.011Z,21.70
2023-05-19T17:07:16.258Z,21.50
2023-05-19T17:09:44.469Z,21.50
2023-05-19T17:12:13.376Z,21.60
2023-05-19T17:14:42.365Z,22.10
2023-05-19T17:17:10.881Z,22.00
2023-05-19T17:19:40.544Z,22.20
2023-05-19T17:22:08.960Z,22.00
2023-05-19T17:24:37.277Z,22.20
2023-05-19T17:27:06.135Z,22.20
2023-05-19T17:29:34.644Z,21.70
2023-05-19T17:32:05.823Z,21.50
2023-05-19T17:34:34.024Z,21.60
2023-05-19T17:37:03.614Z,21.70
2023-05-19T17:39:31.744Z,21.70
2023-05-19T17:41:59.918Z,21.50
2023-05-19T17:44:31.474Z,21.40
2023-05-19T17:47:03.870Z,21.50
2023-05-19T17:49:31.986Z,21.60
2023-05-19T17:52:00.706Z,21.70
2023-05-19T17:54:34.344Z,21.50
2023-05-19T17:57:03.405Z,21.20
2023-05-19T17:59:32.068Z,21.60
2023-05-19T18:02:00.846Z,21.50
2023-05-19T18:04:29.705Z,21.60
2023-05-19T18:06:57.989Z,21.30
2023-05-19T18:09:28.869Z,21.10
2023-05-19T18:12:02.162Z,21.00
2023-05-19T18:14:30.961Z,21.00
2023-05-19T18:16:59.182Z,20.80
2023-05-19T18:19:27.382Z,20.90
2023-05-19T18:21:55.574Z,20.70
2023-05-19T18:24:24.402Z,20.60
2023-05-19T18:26:52.638Z,20.30
2023-05-19T18:29:22.310Z,20.10
2023-05-19T18:31:50.783Z,20.20
2023-05-19T18:34:19.064Z,20.30
2023-05-19T18:36:47.409Z,20.00
2023-05-19T18:39:15.693Z,20.00
2023-05-19T18:41:43.829Z,20.30
2023-05-19T18:44:12.452Z,20.00
2023-05-19T18:46:42.078Z,19.50
2023-05-19T18:49:11.727Z,19.80
2023-05-19T18:51:40.172Z,19.60
2023-05-19T18:54:08.606Z,19.60
2023-05-19T18:56:36.923Z,19.30
2023-05-19T18:59:05.151Z,19.20
2023-05-19T19:01:33.265Z,19.10
2023-05-19T19:04:03.049Z,19.00
2023-05-19T19:06:31.884Z,18.80
2023-05-19T19:08:59.998Z,18.70
2023-05-19T19:11:28.207Z,18.80
2023-05-19T19:13:56.774Z,18.80
2023-05-19T19:16:25.061Z,19.30
2023-05-19T19:18:53.400Z,18.80
2023-05-19T19:21:24.128Z,18.70
2023-05-19T19:23:53.081Z,18.30
2023-05-19T19:26:21.831Z,18.30
2023-05-19T19:28:49.914Z,18.60
2023-05-19T19:31:18.095Z,18.30
2023-05-19T19:33:46.537Z,18.30
2023-05-19T19:36:14.652Z,18.70
2023-05-19T19:38:44.184Z,18.20
2023-05-19T19:41:12.410Z,18.50
2023-05-19T19:43:40.512Z,18.20
2023-05-19T19:46:09.212Z,18.10
2023-05-19T19:48:37.377Z,18.00
2023-05-19T19:51:05.669Z,18.20
2023-05-19T19:53:33.892Z,17.80
2023-05-19T19:56:04.401Z,18.10
2023-05-19T19:58:32.580Z,18.10
2023-05-19T20:01:01.116Z,18.20
2023-05-19T20:03:29.457Z,17.80
2023-05-19T20:05:57.897Z,17.80
2023-05-19T20:08:26.323Z,18.00
2023-05-19T20:10:54.562Z,17.70
2023-05-19T20:13:24.408Z,18.10
2023-05-19T20:15:52.732Z,18.10
2023-05-19T20:18:20.927Z,17.90
2023-05-19T20:20:49.131Z,17.70
2023-05-19T20:23:17.226Z,17.80
2023-05-19T20:26:02.364Z,18.00
2023-05-19T20:28:35.843Z,18.20
2023-05-19T20:31:03.995Z,17.80
2023-05-19T20:33:32.437Z,17.50
2023-05-19T20:36:00.886Z,17.80
2023-05-19T20:38:29.175Z,17.70
2023-05-19T20:40:57.241Z,17.70
2023-05-19T20:43:25.562Z,17.90
2023-05-19T20:45:55.081Z,17.80
2023-05-19T20:48:23.694Z,17.60
2023-05-19T20:50:51.820Z,17.70
2023-05-19T20:53:21.489Z,17.70
2023-05-19T20:55:49.572Z,17.70
2023-05-19T20:58:17.720Z,17.80
2023-05-19T21:00:45.855Z,17.60
2023-05-19T21:03:15.431Z,18.00
2023-05-19T21:05:43.556Z,17.40
2023-05-19T21:08:12.976Z,17.30
2023-05-19T21:10:41.694Z,17.50
2023-05-19T21:13:09.744Z,17.80
2023-05-19T21:15:37.844Z,18.00
2023-05-19T21:18:05.934Z,17.70
2023-05-19T21:20:35.722Z,17.70
2023-05-19T21:23:03.902Z,17.30
2023-05-19T21:25:32.146Z,17.40
2023-05-19T21:28:00.389Z,17.30
2023-05-19T21:30:28.496Z,17.30
2023-05-19T21:32:57.225Z,17.10
2023-05-19T21:35:25.484Z,17.20
2023-05-19T21:37:55.769Z,17.50
2023-05-19T21:40:24.029Z,17.70
2023-05-19T21:42:52.188Z,17.50
2023-05-19T21:45:20.362Z,17.40
2023-05-19T21:47:48.695Z,17.00
2023-05-19T21:50:17.508Z,17.30
2023-05-19T21:52:45.666Z,17.30
2023-05-19T21:55:15.069Z,17.70
2023-05-19T21:57:43.179Z,18.00
2023-05-19T22:00:13.325Z,17.70
2023-05-19T22:02:43.131Z,17.50
2023-05-19T22:05:11.821Z,17.30
2023-05-19T22:07:39.970Z,17.30
2023-05-19T22:10:08.922Z,17.20
2023-05-19T22:12:38.363Z,17.30
2023-05-19T22:15:07.562Z,17.40
2023-05-19T22:17:35.685Z,17.70
2023-05-19T22:20:04.069Z,17.40
2023-05-19T22:22:32.135Z,17.30
2023-05-19T22:25:00.221Z,17.30
2023-05-19T22:27:28.465Z,17.60
2023-05-19T22:29:59.698Z,17.60
2023-05-19T22:32:27.885Z,17.70
2023-05-19T22:34:56.106Z,17.80
2023-05-19T22:37:24.210Z,17.90
2023-05-19T22:39:52.309Z,18.00
2023-05-19T22:42:20.437Z,18.00
2023-05-19T22:44:48.822Z,17.90
2023-05-19T22:47:18.326Z,18.00
2023-05-19T22:49:46.464Z,18.20
2023-05-19T22:52:14.533Z,18.00
2023-05-19T22:54:42.721Z,18.20
2023-05-19T22:57:11.326Z,18.50
2023-05-19T22:59:40.016Z,18.60
2023-05-19T23:02:08.078Z,18.00
2023-05-19T23:04:37.696Z,18.30
2023-05-19T23:07:06.195Z,18.60
2023-05-19T23:09:34.274Z,18.60
2023-05-19T23:12:02.335Z,18.60
2023-05-19T23:14:31.591Z,18.60
2023-05-19T23:16:59.790Z,18.90
2023-05-19T23:19:29.223Z,18.80
2023-05-19T23:21:58.839Z,19.00
2023-05-19T23:24:26.995Z,18.90
2023-05-19T23:26:55.339Z,18.80
2023-05-19T23:29:23.518Z,18.80
2023-05-19T23:31:51.665Z,19.00
2023-05-19T23:34:19.769Z,19.00
2023-05-19T23:36:47.885Z,19.00
2023-05-19T23:39:17.372Z,19.00
2023-05-19T23:41:45.432Z,18.70
2023-05-19T23:44:13.566Z,18.70
2023-05-19T23:46:41.961Z,18.50
2023-05-19T23:49:10.114Z,18.80
2023-05-19T23:51:38.166Z,18.80
2023-05-19T23:54:06.423Z,18.80
2023-05-19T23:56:35.859Z,18.40
2023-05-19T23:59:03.955Z,18.30
